sensor_id;sensor_type;location;lat;lon;timestamp;temperature;humidity
12926;DHT22;6529;50.566;9.774;2024-02-15T00:00:21;9.50;99.90
12926;DHT22;6529;50.566;9.774;2024-02-15T00:02:48;9.60;99.90
12926;DHT22;6529;50.566;9.774;2024-02-15T00:05:14;9.60;99.90
12926;DHT22;6529;50.566;9.774;2024-02-15T00:07:42;9.60;99.90
12926;DHT22;6529;50.566;9.774;2024-02-15T00:10:09;9.50;99.90
12926;DHT22;6529;50.566;9.774;2024-02-15T00:12:35;9.50;99.90
12926;DHT22;6529;50.566;9.774;2024-02-15T00:15:01;9.50;99.90
12926;DHT22;6529;50.566;9.774;2024-02-15T00:17:27;9.50;99.90
12926;DHT22;6529;50.566;9.774;2024-02-15T00:19:55;9.60;99.90
12926;DHT22;6529;50.566;9.774;2024-02-15T00:22:20;9.50;99.90
12926;DHT22;6529;50.566;9.774;2024-02-15T00:24:47;9.60;99.90
12926;DHT22;6529;50.566;9.774;2024-02-15T00:27:14;9.50;99.90
12926;DHT22;6529;50.566;9.774;2024-02-15T00:29:40;9.50;99.90
12926;DHT22;6529;50.566;9.774;2024-02-15T00:32:06;9.50;99.90
12926;DHT22;6529;50.566;9.774;2024-02-15T00:34:32;9.50;99.90
12926;DHT22;6529;50.566;9.774;2024-02-15T00:36:58;9.50;99.90
12926;DHT22;6529;50.566;9.774;2024-02-15T00:39:24;9.60;99.90
12926;DHT22;6529;50.566;9.774;2024-02-15T00:41:50;9.60;99.90
12926;DHT22;6529;50.566;9.774;2024-02-15T00:44:16;9.60;99.90
12926;DHT22;6529;50.566;9.774;2024-02-15T00:46:43;9.60;99.90
12926;DHT22;6529;50.566;9.774;2024-02-15T00:49:08;9.60;99.90
12926;DHT22;6529;50.566;9.774;2024-02-15T00:51:36;9.60;99.90
12926;DHT22;6529;50.566;9.774;2024-02-15T00:54:02;9.60;99.90
12926;DHT22;6529;50.566;9.774;2024-02-15T00:56:28;9.60;99.90
12926;DHT22;6529;50.566;9.774;2024-02-15T00:58:55;9.60;99.90
12926;DHT22;6529;50.566;9.774;2024-02-15T01:01:21;9.70;99.90
12926;DHT22;6529;50.566;9.774;2024-02-15T01:03:47;9.70;99.90
12926;DHT22;6529;50.566;9.774;2024-02-15T01:06:12;9.70;99.90
12926;DHT22;6529;50.566;9.774;2024-02-15T01:08:38;9.70;99.90
12926;DHT22;6529;50.566;9.774;2024-02-15T01:11:04;9.60;99.90
12926;DHT22;6529;50.566;9.774;2024-02-15T01:13:30;9.70;99.90
12926;DHT22;6529;50.566;9.774;2024-02-15T01:15:55;9.60;99.90
12926;DHT22;6529;50.566;9.774;2024-02-15T01:18:21;9.60;99.90
12926;DHT22;6529;50.566;9.774;2024-02-15T01:20:47;9.60;99.90
12926;DHT22;6529;50.566;9.774;2024-02-15T01:23:12;9.60;99.90
12926;DHT22;6529;50.566;9.774;2024-02-15T01:25:38;9.60;99.90
12926;DHT22;6529;50.566;9.774;2024-02-15T01:28:05;9.60;99.90
12926;DHT22;6529;50.566;9.774;2024-02-15T01:30:31;9.60;99.90
12926;DHT22;6529;50.566;9.774;2024-02-15T01:32:57;9.60;99.90
12926;DHT22;6529;50.566;9.774;2024-02-15T01:35:23;9.60;99.90
12926;DHT22;6529;50.566;9.774;2024-02-15T01:37:49;9.60;99.90
12926;DHT22;6529;50.566;9.774;2024-02-15T01:40:16;9.70;99.90
12926;DHT22;6529;50.566;9.774;2024-02-15T01:42:45;9.70;99.90
12926;DHT22;6529;50.566;9.774;2024-02-15T01:45:10;9.60;99.90
12926;DHT22;6529;50.566;9.774;2024-02-15T01:47:38;9.60;99.90
12926;DHT22;6529;50.566;9.774;2024-02-15T01:50:05;9.70;99.90
12926;DHT22;6529;50.566;9.774;2024-02-15T01:52:32;9.60;99.90
12926;DHT22;6529;50.566;9.774;2024-02-15T01:54:58;9.60;99.90
12926;DHT22;6529;50.566;9.774;2024-02-15T01:57:24;9.60;99.90
12926;DHT22;6529;50.566;9.774;2024-02-15T01:59:51;9.70;99.90
12926;DHT22;6529;50.566;9.774;2024-02-15T02:02:20;9.60;99.90
12926;DHT22;6529;50.566;9.774;2024-02-15T02:04:48;9.60;99.90
12926;DHT22;6529;50.566;9.774;2024-02-15T02:07:13;9.70;99.90
12926;DHT22;6529;50.566;9.774;2024-02-15T02:09:40;9.70;99.90
12926;DHT22;6529;50.566;9.774;2024-02-15T02:12:05;9.70;99.90
12926;DHT22;6529;50.566;9.774;2024-02-15T02:14:32;9.70;99.90
12926;DHT22;6529;50.566;9.774;2024-02-15T02:17:11;9.70;99.90
12926;DHT22;6529;50.566;9.774;2024-02-15T02:19:37;9.70;99.90
12926;DHT22;6529;50.566;9.774;2024-02-15T02:22:04;9.70;99.90
12926;DHT22;6529;50.566;9.774;2024-02-15T02:24:31;9.70;99.90
12926;DHT22;6529;50.566;9.774;2024-02-15T02:27:04;9.70;99.90
12926;DHT22;6529;50.566;9.774;2024-02-15T02:29:30;9.70;99.90
12926;DHT22;6529;50.566;9.774;2024-02-15T02:31:57;9.70;99.90
12926;DHT22;6529;50.566;9.774;2024-02-15T02:34:22;9.70;99.90
12926;DHT22;6529;50.566;9.774;2024-02-15T02:36:48;9.70;99.90
12926;DHT22;6529;50.566;9.774;2024-02-15T02:39:15;9.70;99.90
12926;DHT22;6529;50.566;9.774;2024-02-15T02:41:42;9.70;99.90
12926;DHT22;6529;50.566;9.774;2024-02-15T02:44:18;9.70;99.90
12926;DHT22;6529;50.566;9.774;2024-02-15T02:46:43;9.80;99.90
12926;DHT22;6529;50.566;9.774;2024-02-15T02:49:09;9.70;99.90
12926;DHT22;6529;50.566;9.774;2024-02-15T02:51:34;9.80;99.90
12926;DHT22;6529;50.566;9.774;2024-02-15T02:54:00;9.70;99.90
12926;DHT22;6529;50.566;9.774;2024-02-15T02:56:26;9.70;99.90
12926;DHT22;6529;50.566;9.774;2024-02-15T02:58:52;9.70;99.90
12926;DHT22;6529;50.566;9.774;2024-02-15T03:01:18;9.70;99.90
12926;DHT22;6529;50.566;9.774;2024-02-15T03:03:43;9.70;99.90
12926;DHT22;6529;50.566;9.774;2024-02-15T03:06:09;9.80;99.90
12926;DHT22;6529;50.566;9.774;2024-02-15T03:08:34;9.80;99.90
12926;DHT22;6529;50.566;9.774;2024-02-15T03:11:00;9.80;99.90
12926;DHT22;6529;50.566;9.774;2024-02-15T03:13:26;9.80;99.90
12926;DHT22;6529;50.566;9.774;2024-02-15T03:15:51;9.80;99.90
12926;DHT22;6529;50.566;9.774;2024-02-15T03:18:17;9.80;99.90
12926;DHT22;6529;50.566;9.774;2024-02-15T03:20:43;9.80;99.90
12926;DHT22;6529;50.566;9.774;2024-02-15T03:23:09;9.70;99.90
12926;DHT22;6529;50.566;9.774;2024-02-15T03:25:34;9.70;99.90
12926;DHT22;6529;50.566;9.774;2024-02-15T03:28:01;9.80;99.90
12926;DHT22;6529;50.566;9.774;2024-02-15T03:30:33;9.80;99.90
12926;DHT22;6529;50.566;9.774;2024-02-15T03:33:00;9.70;99.90
12926;DHT22;6529;50.566;9.774;2024-02-15T03:35:26;9.70;99.90
12926;DHT22;6529;50.566;9.774;2024-02-15T03:37:54;9.70;99.90
12926;DHT22;6529;50.566;9.774;2024-02-15T03:40:20;9.70;99.90
12926;DHT22;6529;50.566;9.774;2024-02-15T03:42:46;9.70;99.90
12926;DHT22;6529;50.566;9.774;2024-02-15T03:45:12;9.70;99.90
12926;DHT22;6529;50.566;9.774;2024-02-15T03:47:38;9.70;99.90
12926;DHT22;6529;50.566;9.774;2024-02-15T03:50:04;9.70;99.90
12926;DHT22;6529;50.566;9.774;2024-02-15T03:52:31;9.80;99.90
12926;DHT22;6529;50.566;9.774;2024-02-15T03:54:57;9.80;99.90
12926;DHT22;6529;50.566;9.774;2024-02-15T03:57:23;9.80;99.90
12926;DHT22;6529;50.566;9.774;2024-02-15T03:59:49;9.80;99.90
12926;DHT22;6529;50.566;9.774;2024-02-15T04:02:22;9.80;99.90
12926;DHT22;6529;50.566;9.774;2024-02-15T04:04:49;9.80;99.90
12926;DHT22;6529;50.566;9.774;2024-02-15T04:07:18;9.80;99.90
12926;DHT22;6529;50.566;9.774;2024-02-15T04:09:48;9.80;99.90
12926;DHT22;6529;50.566;9.774;2024-02-15T04:12:14;9.80;99.90
12926;DHT22;6529;50.566;9.774;2024-02-15T04:14:48;9.80;99.90
12926;DHT22;6529;50.566;9.774;2024-02-15T04:17:14;9.80;99.90
12926;DHT22;6529;50.566;9.774;2024-02-15T04:19:45;9.80;99.90
12926;DHT22;6529;50.566;9.774;2024-02-15T04:22:12;9.80;99.90
12926;DHT22;6529;50.566;9.774;2024-02-15T04:24:37;9.80;99.90
12926;DHT22;6529;50.566;9.774;2024-02-15T04:27:06;9.80;99.90
12926;DHT22;6529;50.566;9.774;2024-02-15T04:29:39;9.80;99.90
12926;DHT22;6529;50.566;9.774;2024-02-15T04:32:10;9.80;99.90
12926;DHT22;6529;50.566;9.774;2024-02-15T04:34:39;9.80;99.90
12926;DHT22;6529;50.566;9.774;2024-02-15T04:37:05;9.80;99.90
12926;DHT22;6529;50.566;9.774;2024-02-15T04:39:35;9.80;99.90
12926;DHT22;6529;50.566;9.774;2024-02-15T04:42:01;9.80;99.90
12926;DHT22;6529;50.566;9.774;2024-02-15T04:44:27;9.80;99.90
12926;DHT22;6529;50.566;9.774;2024-02-15T04:46:53;9.80;99.90
12926;DHT22;6529;50.566;9.774;2024-02-15T04:49:19;9.80;99.90
12926;DHT22;6529;50.566;9.774;2024-02-15T04:51:46;9.80;99.90
12926;DHT22;6529;50.566;9.774;2024-02-15T04:54:12;9.80;99.90
12926;DHT22;6529;50.566;9.774;2024-02-15T04:56:42;9.80;99.90
12926;DHT22;6529;50.566;9.774;2024-02-15T04:59:09;9.80;99.90
12926;DHT22;6529;50.566;9.774;2024-02-15T05:01:37;9.80;99.90
12926;DHT22;6529;50.566;9.774;2024-02-15T05:04:02;9.80;99.90
12926;DHT22;6529;50.566;9.774;2024-02-15T05:06:29;9.80;99.90
12926;DHT22;6529;50.566;9.774;2024-02-15T05:08:55;9.70;99.90
12926;DHT22;6529;50.566;9.774;2024-02-15T05:11:23;9.70;99.90
12926;DHT22;6529;50.566;9.774;2024-02-15T05:13:48;9.70;99.90
12926;DHT22;6529;50.566;9.774;2024-02-15T05:16:16;9.70;99.90
12926;DHT22;6529;50.566;9.774;2024-02-15T05:18:42;9.80;99.90
12926;DHT22;6529;50.566;9.774;2024-02-15T05:21:08;9.70;99.90
12926;DHT22;6529;50.566;9.774;2024-02-15T05:23:38;9.80;99.90
12926;DHT22;6529;50.566;9.774;2024-02-15T05:26:08;9.80;99.90
12926;DHT22;6529;50.566;9.774;2024-02-15T05:28:33;9.80;99.90
12926;DHT22;6529;50.566;9.774;2024-02-15T05:31:13;9.80;99.90
12926;DHT22;6529;50.566;9.774;2024-02-15T05:33:49;9.80;99.90
12926;DHT22;6529;50.566;9.774;2024-02-15T05:36:16;9.80;99.90
12926;DHT22;6529;50.566;9.774;2024-02-15T05:38:47;9.80;99.90
12926;DHT22;6529;50.566;9.774;2024-02-15T05:41:13;9.70;99.90
12926;DHT22;6529;50.566;9.774;2024-02-15T05:43:39;9.80;99.90
12926;DHT22;6529;50.566;9.774;2024-02-15T05:46:07;9.80;99.90
12926;DHT22;6529;50.566;9.774;2024-02-15T05:48:33;9.80;99.90
12926;DHT22;6529;50.566;9.774;2024-02-15T05:51:01;9.80;99.90
12926;DHT22;6529;50.566;9.774;2024-02-15T05:53:27;9.80;99.90
12926;DHT22;6529;50.566;9.774;2024-02-15T05:55:52;9.80;99.90
12926;DHT22;6529;50.566;9.774;2024-02-15T05:58:18;9.80;99.90
12926;DHT22;6529;50.566;9.774;2024-02-15T06:00:44;9.80;99.90
12926;DHT22;6529;50.566;9.774;2024-02-15T06:03:12;9.80;99.90
12926;DHT22;6529;50.566;9.774;2024-02-15T06:05:38;9.80;99.90
12926;DHT22;6529;50.566;9.774;2024-02-15T06:08:05;9.80;99.90
12926;DHT22;6529;50.566;9.774;2024-02-15T06:10:30;9.70;99.90
12926;DHT22;6529;50.566;9.774;2024-02-15T06:12:57;9.70;99.90
12926;DHT22;6529;50.566;9.774;2024-02-15T06:15:24;9.80;99.90
12926;DHT22;6529;50.566;9.774;2024-02-15T06:17:50;9.80;99.90
12926;DHT22;6529;50.566;9.774;2024-02-15T06:20:16;9.80;99.90
12926;DHT22;6529;50.566;9.774;2024-02-15T06:22:47;9.80;99.90
12926;DHT22;6529;50.566;9.774;2024-02-15T06:25:13;9.80;99.90
12926;DHT22;6529;50.566;9.774;2024-02-15T06:27:39;9.80;99.90
12926;DHT22;6529;50.566;9.774;2024-02-15T06:30:11;9.80;99.90
12926;DHT22;6529;50.566;9.774;2024-02-15T06:32:56;9.80;99.90
12926;DHT22;6529;50.566;9.774;2024-02-15T06:35:40;9.80;99.90
12926;DHT22;6529;50.566;9.774;2024-02-15T06:38:24;9.80;99.90
12926;DHT22;6529;50.566;9.774;2024-02-15T06:41:08;9.80;99.90
12926;DHT22;6529;50.566;9.774;2024-02-15T06:43:35;9.80;99.90
12926;DHT22;6529;50.566;9.774;2024-02-15T06:46:01;9.80;99.90
12926;DHT22;6529;50.566;9.774;2024-02-15T06:48:28;9.80;99.90
12926;DHT22;6529;50.566;9.774;2024-02-15T06:50:53;9.80;99.90
12926;DHT22;6529;50.566;9.774;2024-02-15T06:53:19;9.80;99.90
12926;DHT22;6529;50.566;9.774;2024-02-15T06:55:46;9.80;99.90
12926;DHT22;6529;50.566;9.774;2024-02-15T06:58:16;9.90;99.90
12926;DHT22;6529;50.566;9.774;2024-02-15T07:00:42;9.90;99.90
12926;DHT22;6529;50.566;9.774;2024-02-15T07:03:08;9.90;99.90
12926;DHT22;6529;50.566;9.774;2024-02-15T07:05:34;10.00;99.90
12926;DHT22;6529;50.566;9.774;2024-02-15T07:08:00;10.00;99.90
12926;DHT22;6529;50.566;9.774;2024-02-15T07:10:26;10.00;99.90
12926;DHT22;6529;50.566;9.774;2024-02-15T07:12:51;9.90;99.90
12926;DHT22;6529;50.566;9.774;2024-02-15T07:15:17;9.90;99.90
12926;DHT22;6529;50.566;9.774;2024-02-15T07:17:43;9.90;99.90
12926;DHT22;6529;50.566;9.774;2024-02-15T07:20:11;9.90;99.90
12926;DHT22;6529;50.566;9.774;2024-02-15T07:22:39;9.90;99.90
12926;DHT22;6529;50.566;9.774;2024-02-15T07:25:05;9.90;99.90
12926;DHT22;6529;50.566;9.774;2024-02-15T07:27:30;9.90;99.90
12926;DHT22;6529;50.566;9.774;2024-02-15T07:29:58;9.90;99.90
12926;DHT22;6529;50.566;9.774;2024-02-15T07:32:23;9.90;99.90
12926;DHT22;6529;50.566;9.774;2024-02-15T07:34:49;9.90;99.90
12926;DHT22;6529;50.566;9.774;2024-02-15T07:37:15;9.90;99.90
12926;DHT22;6529;50.566;9.774;2024-02-15T07:39:41;10.00;99.90
12926;DHT22;6529;50.566;9.774;2024-02-15T07:42:07;10.00;99.90
12926;DHT22;6529;50.566;9.774;2024-02-15T07:44:34;10.00;99.90
12926;DHT22;6529;50.566;9.774;2024-02-15T07:47:02;10.10;99.90
12926;DHT22;6529;50.566;9.774;2024-02-15T07:49:28;10.10;99.90
12926;DHT22;6529;50.566;9.774;2024-02-15T07:51:54;10.10;99.90
12926;DHT22;6529;50.566;9.774;2024-02-15T07:54:20;10.20;99.90
12926;DHT22;6529;50.566;9.774;2024-02-15T07:56:49;10.20;99.90
12926;DHT22;6529;50.566;9.774;2024-02-15T07:59:15;10.20;99.90
12926;DHT22;6529;50.566;9.774;2024-02-15T08:01:44;10.20;99.90
12926;DHT22;6529;50.566;9.774;2024-02-15T08:04:12;10.20;99.90
12926;DHT22;6529;50.566;9.774;2024-02-15T08:06:38;10.20;99.90
12926;DHT22;6529;50.566;9.774;2024-02-15T08:09:04;10.20;99.90
12926;DHT22;6529;50.566;9.774;2024-02-15T08:11:30;10.30;99.90
12926;DHT22;6529;50.566;9.774;2024-02-15T08:13:56;10.30;99.90
12926;DHT22;6529;50.566;9.774;2024-02-15T08:16:25;10.40;99.90
12926;DHT22;6529;50.566;9.774;2024-02-15T08:18:53;10.40;99.90
12926;DHT22;6529;50.566;9.774;2024-02-15T08:21:32;10.40;99.90
12926;DHT22;6529;50.566;9.774;2024-02-15T08:24:06;10.40;99.90
12926;DHT22;6529;50.566;9.774;2024-02-15T08:28:57;10.50;99.90
12926;DHT22;6529;50.566;9.774;2024-02-15T08:31:23;10.50;99.90
12926;DHT22;6529;50.566;9.774;2024-02-15T08:33:49;10.60;99.90
12926;DHT22;6529;50.566;9.774;2024-02-15T08:36:14;10.60;99.90
12926;DHT22;6529;50.566;9.774;2024-02-15T08:38:40;10.60;99.90
12926;DHT22;6529;50.566;9.774;2024-02-15T08:41:09;10.60;99.90
12926;DHT22;6529;50.566;9.774;2024-02-15T08:43:36;10.60;99.90
12926;DHT22;6529;50.566;9.774;2024-02-15T08:46:05;10.70;99.90
12926;DHT22;6529;50.566;9.774;2024-02-15T08:48:31;10.70;99.90
12926;DHT22;6529;50.566;9.774;2024-02-15T08:50:57;10.80;99.90
12926;DHT22;6529;50.566;9.774;2024-02-15T08:53:23;10.80;99.90
12926;DHT22;6529;50.566;9.774;2024-02-15T08:55:50;10.80;99.90
12926;DHT22;6529;50.566;9.774;2024-02-15T08:58:15;10.80;99.90
12926;DHT22;6529;50.566;9.774;2024-02-15T09:00:41;10.80;99.90
12926;DHT22;6529;50.566;9.774;2024-02-15T09:03:10;10.80;99.90
12926;DHT22;6529;50.566;9.774;2024-02-15T09:05:36;10.80;99.90
12926;DHT22;6529;50.566;9.774;2024-02-15T09:08:02;10.90;99.90
12926;DHT22;6529;50.566;9.774;2024-02-15T09:10:30;10.90;99.90
12926;DHT22;6529;50.566;9.774;2024-02-15T09:12:55;10.90;99.90
12926;DHT22;6529;50.566;9.774;2024-02-15T09:15:22;10.90;99.90
12926;DHT22;6529;50.566;9.774;2024-02-15T09:17:48;11.00;99.90
12926;DHT22;6529;50.566;9.774;2024-02-15T09:20:15;11.00;99.90
12926;DHT22;6529;50.566;9.774;2024-02-15T09:22:47;11.00;99.90
12926;DHT22;6529;50.566;9.774;2024-02-15T09:25:13;11.10;99.90
12926;DHT22;6529;50.566;9.774;2024-02-15T09:27:39;11.10;99.90
12926;DHT22;6529;50.566;9.774;2024-02-15T09:30:05;11.10;99.90
12926;DHT22;6529;50.566;9.774;2024-02-15T09:32:38;11.10;99.90
12926;DHT22;6529;50.566;9.774;2024-02-15T09:35:04;11.20;99.90
12926;DHT22;6529;50.566;9.774;2024-02-15T09:37:37;11.20;99.90
12926;DHT22;6529;50.566;9.774;2024-02-15T09:40:08;11.20;99.90
12926;DHT22;6529;50.566;9.774;2024-02-15T09:42:35;11.30;99.90
12926;DHT22;6529;50.566;9.774;2024-02-15T09:45:04;11.30;99.90
12926;DHT22;6529;50.566;9.774;2024-02-15T09:47:37;11.40;99.90
12926;DHT22;6529;50.566;9.774;2024-02-15T09:50:13;11.50;99.90
12926;DHT22;6529;50.566;9.774;2024-02-15T09:52:40;11.50;99.90
12926;DHT22;6529;50.566;9.774;2024-02-15T09:55:07;11.60;99.90
12926;DHT22;6529;50.566;9.774;2024-02-15T09:57:41;11.60;99.90
12926;DHT22;6529;50.566;9.774;2024-02-15T10:00:08;11.60;99.90
12926;DHT22;6529;50.566;9.774;2024-02-15T10:02:38;11.70;99.90
12926;DHT22;6529;50.566;9.774;2024-02-15T10:05:05;11.70;99.90
12926;DHT22;6529;50.566;9.774;2024-02-15T10:07:31;11.70;99.90
12926;DHT22;6529;50.566;9.774;2024-02-15T10:09:57;11.80;99.90
12926;DHT22;6529;50.566;9.774;2024-02-15T10:12:39;11.80;99.90
12926;DHT22;6529;50.566;9.774;2024-02-15T10:15:04;11.80;99.90
12926;DHT22;6529;50.566;9.774;2024-02-15T10:17:33;11.80;99.90
12926;DHT22;6529;50.566;9.774;2024-02-15T10:20:05;11.90;99.90
12926;DHT22;6529;50.566;9.774;2024-02-15T10:22:31;12.00;99.90
12926;DHT22;6529;50.566;9.774;2024-02-15T10:25:13;12.20;99.90
12926;DHT22;6529;50.566;9.774;2024-02-15T10:27:40;12.40;99.90
12926;DHT22;6529;50.566;9.774;2024-02-15T10:30:19;12.50;99.90
12926;DHT22;6529;50.566;9.774;2024-02-15T10:32:45;12.60;99.90
12926;DHT22;6529;50.566;9.774;2024-02-15T10:35:19;12.70;99.90
12926;DHT22;6529;50.566;9.774;2024-02-15T10:37:45;12.80;99.90
12926;DHT22;6529;50.566;9.774;2024-02-15T10:40:11;12.80;99.90
12926;DHT22;6529;50.566;9.774;2024-02-15T10:42:40;13.00;99.90
12926;DHT22;6529;50.566;9.774;2024-02-15T10:45:08;13.20;99.90
12926;DHT22;6529;50.566;9.774;2024-02-15T10:47:37;13.30;99.90
12926;DHT22;6529;50.566;9.774;2024-02-15T10:50:04;13.30;99.90
12926;DHT22;6529;50.566;9.774;2024-02-15T10:52:32;13.30;99.90
12926;DHT22;6529;50.566;9.774;2024-02-15T10:55:04;13.50;99.90
12926;DHT22;6529;50.566;9.774;2024-02-15T10:57:31;13.60;99.90
12926;DHT22;6529;50.566;9.774;2024-02-15T10:59:59;13.50;99.90
12926;DHT22;6529;50.566;9.774;2024-02-15T11:02:37;13.50;99.90
12926;DHT22;6529;50.566;9.774;2024-02-15T11:05:06;13.40;99.90
12926;DHT22;6529;50.566;9.774;2024-02-15T11:07:35;13.30;99.90
12926;DHT22;6529;50.566;9.774;2024-02-15T11:10:02;13.30;99.90
12926;DHT22;6529;50.566;9.774;2024-02-15T11:12:31;13.30;99.90
12926;DHT22;6529;50.566;9.774;2024-02-15T11:14:57;13.20;99.90
12926;DHT22;6529;50.566;9.774;2024-02-15T11:17:45;13.20;99.90
12926;DHT22;6529;50.566;9.774;2024-02-15T11:23:04;13.30;99.90
12926;DHT22;6529;50.566;9.774;2024-02-15T11:30:54;13.90;99.90
12926;DHT22;6529;50.566;9.774;2024-02-15T11:33:35;13.90;99.90
12926;DHT22;6529;50.566;9.774;2024-02-15T11:36:13;13.80;99.90
12926;DHT22;6529;50.566;9.774;2024-02-15T11:38:40;13.90;99.90
12926;DHT22;6529;50.566;9.774;2024-02-15T11:41:07;14.10;99.90
12926;DHT22;6529;50.566;9.774;2024-02-15T11:43:49;14.20;1.00
12926;DHT22;6529;50.566;9.774;2024-02-15T11:46:15;14.30;93.30
12926;DHT22;6529;50.566;9.774;2024-02-15T11:48:45;14.30;22.70
12926;DHT22;6529;50.566;9.774;2024-02-15T11:51:27;14.30;72.40
12926;DHT22;6529;50.566;9.774;2024-02-15T11:54:04;14.40;1.00
12926;DHT22;6529;50.566;9.774;2024-02-15T11:59:13;14.70;1.00
12926;DHT22;6529;50.566;9.774;2024-02-15T12:01:55;14.90;99.90
12926;DHT22;6529;50.566;9.774;2024-02-15T12:04:39;15.00;99.90
12926;DHT22;6529;50.566;9.774;2024-02-15T12:07:24;14.80;99.90
12926;DHT22;6529;50.566;9.774;2024-02-15T12:10:18;14.50;1.00
12926;DHT22;6529;50.566;9.774;2024-02-15T12:13:02;14.30;1.00
12926;DHT22;6529;50.566;9.774;2024-02-15T12:15:59;14.20;1.00
12926;DHT22;6529;50.566;9.774;2024-02-15T12:18:44;14.10;1.00
12926;DHT22;6529;50.566;9.774;2024-02-15T12:21:23;14.00;1.00
12926;DHT22;6529;50.566;9.774;2024-02-15T12:23:51;14.00;17.60
12926;DHT22;6529;50.566;9.774;2024-02-15T12:26:21;14.10;76.30
12926;DHT22;6529;50.566;9.774;2024-02-15T12:28:52;14.10;1.00
12926;DHT22;6529;50.566;9.774;2024-02-15T12:31:24;14.10;13.30
12926;DHT22;6529;50.566;9.774;2024-02-15T12:34:04;14.20;1.00
12926;DHT22;6529;50.566;9.774;2024-02-15T12:36:36;14.20;41.50
12926;DHT22;6529;50.566;9.774;2024-02-15T12:39:04;14.20;4.40
12926;DHT22;6529;50.566;9.774;2024-02-15T12:41:40;14.10;1.00
12926;DHT22;6529;50.566;9.774;2024-02-15T12:44:09;14.10;1.00
12926;DHT22;6529;50.566;9.774;2024-02-15T12:46:36;14.10;1.00
12926;DHT22;6529;50.566;9.774;2024-02-15T12:49:09;14.10;53.50
12926;DHT22;6529;50.566;9.774;2024-02-15T12:51:39;14.10;1.00
12926;DHT22;6529;50.566;9.774;2024-02-15T12:54:09;14.10;70.70
12926;DHT22;6529;50.566;9.774;2024-02-15T12:56:36;14.20;22.10
12926;DHT22;6529;50.566;9.774;2024-02-15T12:59:01;14.10;42.00
12926;DHT22;6529;50.566;9.774;2024-02-15T13:01:28;14.00;98.70
12926;DHT22;6529;50.566;9.774;2024-02-15T13:03:54;14.00;37.50
12926;DHT22;6529;50.566;9.774;2024-02-15T13:06:20;13.90;14.10
12926;DHT22;6529;50.566;9.774;2024-02-15T13:08:49;13.90;1.00
12926;DHT22;6529;50.566;9.774;2024-02-15T13:11:15;14.00;1.00
12926;DHT22;6529;50.566;9.774;2024-02-15T13:13:41;14.10;1.00
12926;DHT22;6529;50.566;9.774;2024-02-15T13:16:08;14.30;99.90
12926;DHT22;6529;50.566;9.774;2024-02-15T13:18:33;14.30;44.40
12926;DHT22;6529;50.566;9.774;2024-02-15T13:20:59;14.20;99.90
12926;DHT22;6529;50.566;9.774;2024-02-15T13:23:24;14.30;1.00
12926;DHT22;6529;50.566;9.774;2024-02-15T13:25:51;14.60;99.90
12926;DHT22;6529;50.566;9.774;2024-02-15T13:28:18;14.40;1.00
12926;DHT22;6529;50.566;9.774;2024-02-15T13:30:43;14.20;1.00
12926;DHT22;6529;50.566;9.774;2024-02-15T13:33:11;14.10;98.00
12926;DHT22;6529;50.566;9.774;2024-02-15T13:35:36;14.10;99.90
12926;DHT22;6529;50.566;9.774;2024-02-15T13:38:02;14.00;99.90
12926;DHT22;6529;50.566;9.774;2024-02-15T13:40:29;13.90;99.90
12926;DHT22;6529;50.566;9.774;2024-02-15T13:42:57;13.90;99.90
12926;DHT22;6529;50.566;9.774;2024-02-15T13:48:02;13.80;99.90
12926;DHT22;6529;50.566;9.774;2024-02-15T13:50:29;13.80;99.90
12926;DHT22;6529;50.566;9.774;2024-02-15T13:52:55;13.80;99.90
12926;DHT22;6529;50.566;9.774;2024-02-15T13:55:21;13.70;99.90
12926;DHT22;6529;50.566;9.774;2024-02-15T13:57:48;13.70;99.90
12926;DHT22;6529;50.566;9.774;2024-02-15T14:00:15;13.70;99.90
12926;DHT22;6529;50.566;9.774;2024-02-15T14:02:50;13.70;99.90
12926;DHT22;6529;50.566;9.774;2024-02-15T14:05:18;13.70;99.90
12926;DHT22;6529;50.566;9.774;2024-02-15T14:07:47;13.80;99.90
12926;DHT22;6529;50.566;9.774;2024-02-15T14:10:13;13.80;99.90
12926;DHT22;6529;50.566;9.774;2024-02-15T14:12:38;13.80;57.90
12926;DHT22;6529;50.566;9.774;2024-02-15T14:15:04;13.80;99.90
12926;DHT22;6529;50.566;9.774;2024-02-15T14:17:31;13.80;90.30
12926;DHT22;6529;50.566;9.774;2024-02-15T14:19:57;13.80;1.00
12926;DHT22;6529;50.566;9.774;2024-02-15T14:22:23;13.80;26.40
12926;DHT22;6529;50.566;9.774;2024-02-15T14:24:49;13.80;1.00
12926;DHT22;6529;50.566;9.774;2024-02-15T14:27:15;13.80;1.00
12926;DHT22;6529;50.566;9.774;2024-02-15T14:29:41;13.80;1.00
12926;DHT22;6529;50.566;9.774;2024-02-15T14:32:26;13.70;3.60
12926;DHT22;6529;50.566;9.774;2024-02-15T14:35:10;13.70;32.20
12926;DHT22;6529;50.566;9.774;2024-02-15T14:37:37;13.60;2.20
12926;DHT22;6529;50.566;9.774;2024-02-15T14:40:05;13.60;99.40
12926;DHT22;6529;50.566;9.774;2024-02-15T14:42:32;13.50;1.00
12926;DHT22;6529;50.566;9.774;2024-02-15T14:44:59;13.50;1.00
12926;DHT22;6529;50.566;9.774;2024-02-15T14:47:25;13.40;69.70
12926;DHT22;6529;50.566;9.774;2024-02-15T14:49:51;13.40;30.20
12926;DHT22;6529;50.566;9.774;2024-02-15T14:52:17;13.30;89.90
12926;DHT22;6529;50.566;9.774;2024-02-15T14:54:43;13.40;35.50
12926;DHT22;6529;50.566;9.774;2024-02-15T14:57:09;13.30;40.20
12926;DHT22;6529;50.566;9.774;2024-02-15T14:59:34;13.30;6.60
12926;DHT22;6529;50.566;9.774;2024-02-15T15:02:01;13.30;9.70
12926;DHT22;6529;50.566;9.774;2024-02-15T15:04:34;13.30;44.20
12926;DHT22;6529;50.566;9.774;2024-02-15T15:07:13;13.20;61.50
12926;DHT22;6529;50.566;9.774;2024-02-15T15:09:56;13.20;99.90
12926;DHT22;6529;50.566;9.774;2024-02-15T15:12:41;13.20;91.90
12926;DHT22;6529;50.566;9.774;2024-02-15T15:15:11;13.10;42.60
12926;DHT22;6529;50.566;9.774;2024-02-15T15:17:38;13.10;1.00
12926;DHT22;6529;50.566;9.774;2024-02-15T15:20:05;13.10;17.90
12926;DHT22;6529;50.566;9.774;2024-02-15T15:22:34;13.10;19.30
12926;DHT22;6529;50.566;9.774;2024-02-15T15:25:00;13.00;21.10
12926;DHT22;6529;50.566;9.774;2024-02-15T15:27:27;13.00;1.00
12926;DHT22;6529;50.566;9.774;2024-02-15T15:29:53;13.00;1.00
12926;DHT22;6529;50.566;9.774;2024-02-15T15:32:19;12.90;37.40
12926;DHT22;6529;50.566;9.774;2024-02-15T15:34:45;12.90;26.70
12926;DHT22;6529;50.566;9.774;2024-02-15T15:37:10;12.90;11.50
12926;DHT22;6529;50.566;9.774;2024-02-15T15:39:37;12.90;57.90
12926;DHT22;6529;50.566;9.774;2024-02-15T15:42:03;12.90;99.90
12926;DHT22;6529;50.566;9.774;2024-02-15T15:44:32;12.80;99.90
12926;DHT22;6529;50.566;9.774;2024-02-15T15:46:59;12.80;99.90
12926;DHT22;6529;50.566;9.774;2024-02-15T15:49:25;12.80;99.90
12926;DHT22;6529;50.566;9.774;2024-02-15T15:51:51;12.70;99.90
12926;DHT22;6529;50.566;9.774;2024-02-15T15:54:18;12.70;99.90
12926;DHT22;6529;50.566;9.774;2024-02-15T15:56:45;12.70;83.60
12926;DHT22;6529;50.566;9.774;2024-02-15T15:59:11;12.70;52.30
12926;DHT22;6529;50.566;9.774;2024-02-15T16:01:36;12.70;37.00
12926;DHT22;6529;50.566;9.774;2024-02-15T16:04:03;12.60;99.80
12926;DHT22;6529;50.566;9.774;2024-02-15T16:06:29;12.60;82.00
12926;DHT22;6529;50.566;9.774;2024-02-15T16:08:54;12.60;84.40
12926;DHT22;6529;50.566;9.774;2024-02-15T16:11:20;12.50;99.90
12926;DHT22;6529;50.566;9.774;2024-02-15T16:13:45;12.40;99.90
12926;DHT22;6529;50.566;9.774;2024-02-15T16:16:13;12.40;99.90